RJOO/ITM METAR and TAF weather

Enter ICAO airport designator
Station Type Date Time Source
RJOO METAR 2020/07/11 11:00 UTC NOAA

RJOO 111100Z 23003KT 180V260 9000 FEW004 SCT030 BKN150 25/25 Q1006


Station Type Date Time Source
RJOO Decoded METAR 2020/07/11 11:00 UTC NOAA

Osaka International Airport, Japan (RJOO) 34-47N 135-27E 15M
Jul 11, 2020 - 07:00 AM EDT / 2020.07.11 1100 UTC
Wind: from the SW (230 degrees) at 3 MPH (3 KT) (direction variable):0
Visibility: 5 mile(s):0
Sky conditions: mostly cloudy
Temperature: 77 F (25 C)
Dew Point: 77 F (25 C)
Relative Humidity: 100%
Pressure (altimeter): 29.71 in. Hg (1006 hPa)
ob: RJOO 111100Z 23003KT 180V260 9000 FEW004 SCT030 BKN150 25/25 Q1006
cycle: 11

Station Type Date Time Source
RJOO TAF 2020/07/11 12:31 UTC NOAA

TAF RJOO 111108Z 1112/1218 25006KT 9999 FEW008 SCT015 BKN035

Example: see airport list